sensor_id;sensor_type;location;lat;lon;timestamp;pressure;altitude;pressure_sealevel;temperature;humidity
61900;BME280;47853;55.890;37.664;2023-07-09T00:01:16;99061.38;;;22.81;78.61
61900;BME280;47853;55.890;37.664;2023-07-09T00:03:42;99051.81;;;22.73;82.00
61900;BME280;47853;55.890;37.664;2023-07-09T00:06:08;99066.81;;;22.86;81.60
61900;BME280;47853;55.890;37.664;2023-07-09T00:08:33;99052.69;;;22.79;82.78
61900;BME280;47853;55.890;37.664;2023-07-09T00:10:59;99055.19;;;22.36;87.34
61900;BME280;47853;55.890;37.664;2023-07-09T00:13:26;99048.28;;;22.45;87.89
61900;BME280;47853;55.890;37.664;2023-07-09T00:16:00;99053.13;;;21.99;87.38
61900;BME280;47853;55.890;37.664;2023-07-09T00:18:26;99045.56;;;22.73;83.43
61900;BME280;47853;55.890;37.664;2023-07-09T00:20:51;99048.00;;;23.02;80.23
61900;BME280;47853;55.890;37.664;2023-07-09T00:23:17;99052.38;;;22.76;81.72
61900;BME280;47853;55.890;37.664;2023-07-09T00:25:43;99044.13;;;22.38;87.47
61900;BME280;47853;55.890;37.664;2023-07-09T00:28:18;99056.22;;;22.30;88.17
61900;BME280;47853;55.890;37.664;2023-07-09T00:30:44;99048.06;;;22.02;87.95
61900;BME280;47853;55.890;37.664;2023-07-09T00:33:11;99043.91;;;21.95;87.84
61900;BME280;47853;55.890;37.664;2023-07-09T00:35:37;99043.72;;;22.01;88.47
61900;BME280;47853;55.890;37.664;2023-07-09T00:38:02;99043.13;;;22.22;88.44
61900;BME280;47853;55.890;37.664;2023-07-09T00:40:28;99044.06;;;21.66;93.82
61900;BME280;47853;55.890;37.664;2023-07-09T00:42:54;99041.25;;;21.78;95.11
61900;BME280;47853;55.890;37.664;2023-07-09T00:45:26;99025.81;;;21.95;93.04
61900;BME280;47853;55.890;37.664;2023-07-09T00:48:01;99040.44;;;22.22;90.13
61900;BME280;47853;55.890;37.664;2023-07-09T00:50:41;99025.84;;;22.23;88.15
61900;BME280;47853;55.890;37.664;2023-07-09T00:53:29;99020.44;;;21.78;93.58
61900;BME280;47853;55.890;37.664;2023-07-09T00:56:00;99022.75;;;21.69;93.91
61900;BME280;47853;55.890;37.664;2023-07-09T00:58:27;99011.06;;;21.86;91.81
61900;BME280;47853;55.890;37.664;2023-07-09T01:00:56;99024.59;;;21.86;92.54
61900;BME280;47853;55.890;37.664;2023-07-09T01:03:45;99015.38;;;22.31;85.66
61900;BME280;47853;55.890;37.664;2023-07-09T01:06:12;99007.66;;;22.18;86.45
61900;BME280;47853;55.890;37.664;2023-07-09T01:08:40;99015.25;;;22.21;85.14
61900;BME280;47853;55.890;37.664;2023-07-09T01:11:05;98997.72;;;22.24;84.63
61900;BME280;47853;55.890;37.664;2023-07-09T01:13:31;99013.25;;;22.34;84.51
61900;BME280;47853;55.890;37.664;2023-07-09T01:15:56;99003.19;;;22.84;80.54
61900;BME280;47853;55.890;37.664;2023-07-09T01:18:22;99005.16;;;22.94;79.16
61900;BME280;47853;55.890;37.664;2023-07-09T01:20:48;98998.00;;;22.77;79.20
61900;BME280;47853;55.890;37.664;2023-07-09T01:23:13;99010.06;;;22.97;78.06
61900;BME280;47853;55.890;37.664;2023-07-09T01:25:44;98993.81;;;22.64;78.72
61900;BME280;47853;55.890;37.664;2023-07-09T01:28:10;99009.06;;;22.76;77.34
61900;BME280;47853;55.890;37.664;2023-07-09T01:30:38;99005.38;;;22.87;77.59
61900;BME280;47853;55.890;37.664;2023-07-09T01:33:05;99006.56;;;22.69;79.68
61900;BME280;47853;55.890;37.664;2023-07-09T01:35:33;99003.69;;;22.81;79.66
61900;BME280;47853;55.890;37.664;2023-07-09T01:37:58;99009.00;;;23.03;77.13
61900;BME280;47853;55.890;37.664;2023-07-09T01:40:26;99009.63;;;22.78;79.18
61900;BME280;47853;55.890;37.664;2023-07-09T01:42:52;99012.00;;;22.74;79.90
61900;BME280;47853;55.890;37.664;2023-07-09T01:45:17;99012.19;;;22.62;81.35
61900;BME280;47853;55.890;37.664;2023-07-09T01:47:43;99014.88;;;22.89;81.26
61900;BME280;47853;55.890;37.664;2023-07-09T01:50:09;99014.38;;;22.98;78.61
61900;BME280;47853;55.890;37.664;2023-07-09T01:52:35;99008.34;;;22.85;80.89
61900;BME280;47853;55.890;37.664;2023-07-09T01:55:01;99001.59;;;22.88;77.93
61900;BME280;47853;55.890;37.664;2023-07-09T01:57:28;99007.94;;;22.71;80.38
61900;BME280;47853;55.890;37.664;2023-07-09T01:59:54;98997.38;;;22.70;80.44
61900;BME280;47853;55.890;37.664;2023-07-09T02:02:23;98996.69;;;22.85;78.83
61900;BME280;47853;55.890;37.664;2023-07-09T02:04:53;98996.78;;;22.63;79.19
61900;BME280;47853;55.890;37.664;2023-07-09T02:07:24;99007.03;;;22.60;80.72
61900;BME280;47853;55.890;37.664;2023-07-09T02:09:50;99005.25;;;22.44;81.32
61900;BME280;47853;55.890;37.664;2023-07-09T02:12:16;99004.34;;;22.60;80.26
61900;BME280;47853;55.890;37.664;2023-07-09T02:14:42;98997.28;;;22.59;80.10
61900;BME280;47853;55.890;37.664;2023-07-09T02:17:09;99001.34;;;22.89;77.31
61900;BME280;47853;55.890;37.664;2023-07-09T02:19:35;98993.44;;;22.83;77.34
61900;BME280;47853;55.890;37.664;2023-07-09T02:22:01;98991.44;;;22.73;77.79
61900;BME280;47853;55.890;37.664;2023-07-09T02:24:26;98992.63;;;23.20;74.36
61900;BME280;47853;55.890;37.664;2023-07-09T02:26:51;98999.03;;;23.46;72.41
61900;BME280;47853;55.890;37.664;2023-07-09T02:29:17;98995.44;;;23.36;73.33
61900;BME280;47853;55.890;37.664;2023-07-09T02:31:44;98994.47;;;23.57;72.28
61900;BME280;47853;55.890;37.664;2023-07-09T02:34:09;98993.81;;;23.35;71.99
61900;BME280;47853;55.890;37.664;2023-07-09T02:36:34;98999.78;;;23.90;69.55
61900;BME280;47853;55.890;37.664;2023-07-09T02:39:00;98993.97;;;24.35;64.92
61900;BME280;47853;55.890;37.664;2023-07-09T02:41:25;98991.06;;;23.78;68.33
61900;BME280;47853;55.890;37.664;2023-07-09T02:43:51;98999.97;;;23.73;68.22
61900;BME280;47853;55.890;37.664;2023-07-09T02:46:16;98971.88;;;23.95;66.50
61900;BME280;47853;55.890;37.664;2023-07-09T02:48:43;98992.56;;;24.27;66.52
61900;BME280;47853;55.890;37.664;2023-07-09T02:51:08;98988.22;;;24.10;66.36
61900;BME280;47853;55.890;37.664;2023-07-09T02:53:33;98997.97;;;24.06;67.40
61900;BME280;47853;55.890;37.664;2023-07-09T02:55:59;98994.91;;;23.97;66.31
61900;BME280;47853;55.890;37.664;2023-07-09T02:58:24;98978.28;;;23.73;67.99
61900;BME280;47853;55.890;37.664;2023-07-09T03:00:50;98995.53;;;24.10;68.15
61900;BME280;47853;55.890;37.664;2023-07-09T03:03:15;98997.50;;;24.56;65.78
61900;BME280;47853;55.890;37.664;2023-07-09T03:05:40;98987.97;;;24.27;66.37
61900;BME280;47853;55.890;37.664;2023-07-09T03:08:06;98994.00;;;24.55;65.56
61900;BME280;47853;55.890;37.664;2023-07-09T03:10:31;98987.75;;;24.55;65.16
61900;BME280;47853;55.890;37.664;2023-07-09T03:12:56;98994.50;;;24.31;66.29
61900;BME280;47853;55.890;37.664;2023-07-09T03:15:22;98983.94;;;24.51;66.59
61900;BME280;47853;55.890;37.664;2023-07-09T03:17:47;98993.41;;;24.43;65.97
61900;BME280;47853;55.890;37.664;2023-07-09T03:20:12;98983.41;;;24.64;65.61
61900;BME280;47853;55.890;37.664;2023-07-09T03:22:38;98967.94;;;24.70;65.65
61900;BME280;47853;55.890;37.664;2023-07-09T03:25:03;98978.22;;;24.52;66.02
61900;BME280;47853;55.890;37.664;2023-07-09T03:27:29;98969.56;;;24.71;65.18
61900;BME280;47853;55.890;37.664;2023-07-09T03:29:54;98973.59;;;25.30;63.50
61900;BME280;47853;55.890;37.664;2023-07-09T03:32:19;98979.84;;;25.26;63.09
61900;BME280;47853;55.890;37.664;2023-07-09T03:34:45;98981.78;;;25.20;62.59
61900;BME280;47853;55.890;37.664;2023-07-09T03:37:10;98969.03;;;25.10;62.98
61900;BME280;47853;55.890;37.664;2023-07-09T03:39:35;98973.13;;;24.92;65.66
61900;BME280;47853;55.890;37.664;2023-07-09T03:42:00;98954.91;;;24.72;67.15
61900;BME280;47853;55.890;37.664;2023-07-09T03:44:26;98970.69;;;24.80;66.87
61900;BME280;47853;55.890;37.664;2023-07-09T03:46:51;98973.91;;;24.93;66.52
61900;BME280;47853;55.890;37.664;2023-07-09T03:49:16;98965.50;;;24.99;64.63
61900;BME280;47853;55.890;37.664;2023-07-09T03:51:42;98966.56;;;24.67;67.35
61900;BME280;47853;55.890;37.664;2023-07-09T03:54:07;98974.41;;;25.31;65.09
61900;BME280;47853;55.890;37.664;2023-07-09T03:56:32;98978.41;;;25.59;62.17
61900;BME280;47853;55.890;37.664;2023-07-09T03:58:58;98970.09;;;25.14;62.39
61900;BME280;47853;55.890;37.664;2023-07-09T04:01:23;98980.59;;;25.62;60.91
61900;BME280;47853;55.890;37.664;2023-07-09T04:03:49;98966.34;;;25.86;60.16
61900;BME280;47853;55.890;37.664;2023-07-09T04:06:14;98973.84;;;26.15;58.09
61900;BME280;47853;55.890;37.664;2023-07-09T04:08:39;98979.28;;;26.15;59.09
61900;BME280;47853;55.890;37.664;2023-07-09T04:11:05;98979.59;;;26.48;57.67
61900;BME280;47853;55.890;37.664;2023-07-09T04:13:30;98974.38;;;26.57;57.93
61900;BME280;47853;55.890;37.664;2023-07-09T04:15:56;98978.06;;;26.37;57.86
61900;BME280;47853;55.890;37.664;2023-07-09T04:18:22;98969.81;;;26.47;59.03
61900;BME280;47853;55.890;37.664;2023-07-09T04:20:49;98984.06;;;26.69;57.28
61900;BME280;47853;55.890;37.664;2023-07-09T04:23:14;98975.47;;;26.56;57.71
61900;BME280;47853;55.890;37.664;2023-07-09T04:25:40;98976.19;;;26.32;60.45
61900;BME280;47853;55.890;37.664;2023-07-09T04:28:05;98980.13;;;26.50;59.99
61900;BME280;47853;55.890;37.664;2023-07-09T04:30:30;98978.72;;;26.58;60.74
61900;BME280;47853;55.890;37.664;2023-07-09T04:32:56;98991.25;;;26.14;63.02
61900;BME280;47853;55.890;37.664;2023-07-09T04:35:21;98970.81;;;25.67;66.00
61900;BME280;47853;55.890;37.664;2023-07-09T04:37:46;98969.16;;;25.60;66.74
61900;BME280;47853;55.890;37.664;2023-07-09T04:40:12;98972.75;;;25.35;68.21
61900;BME280;47853;55.890;37.664;2023-07-09T04:42:38;98968.97;;;25.26;68.11
61900;BME280;47853;55.890;37.664;2023-07-09T04:45:03;98964.16;;;24.76;71.54
61900;BME280;47853;55.890;37.664;2023-07-09T04:47:29;98969.28;;;25.09;69.94
61900;BME280;47853;55.890;37.664;2023-07-09T04:49:54;98963.59;;;25.10;68.94
61900;BME280;47853;55.890;37.664;2023-07-09T04:52:20;98958.31;;;25.55;68.92
61900;BME280;47853;55.890;37.664;2023-07-09T04:54:45;98961.47;;;25.83;65.63
61900;BME280;47853;55.890;37.664;2023-07-09T04:57:11;98954.91;;;26.40;62.06
61900;BME280;47853;55.890;37.664;2023-07-09T04:59:37;98958.34;;;26.11;62.89
61900;BME280;47853;55.890;37.664;2023-07-09T05:02:03;98933.84;;;25.60;65.63
61900;BME280;47853;55.890;37.664;2023-07-09T05:04:28;98954.25;;;26.13;61.27
61900;BME280;47853;55.890;37.664;2023-07-09T05:06:54;98955.84;;;26.59;55.00
61900;BME280;47853;55.890;37.664;2023-07-09T05:09:19;98944.34;;;26.68;54.22
61900;BME280;47853;55.890;37.664;2023-07-09T05:11:44;98942.78;;;26.91;51.79
61900;BME280;47853;55.890;37.664;2023-07-09T05:14:10;98940.13;;;26.16;50.79
61900;BME280;47853;55.890;37.664;2023-07-09T05:16:35;98944.91;;;25.80;53.45
61900;BME280;47853;55.890;37.664;2023-07-09T05:19:00;98935.03;;;26.74;51.22
61900;BME280;47853;55.890;37.664;2023-07-09T05:21:25;98941.50;;;26.48;53.07
61900;BME280;47853;55.890;37.664;2023-07-09T05:23:51;98938.19;;;26.12;53.52
61900;BME280;47853;55.890;37.664;2023-07-09T05:26:16;98937.66;;;26.49;52.65
61900;BME280;47853;55.890;37.664;2023-07-09T05:28:41;98943.31;;;27.23;50.31
61900;BME280;47853;55.890;37.664;2023-07-09T05:31:07;98939.38;;;27.34;48.26
61900;BME280;47853;55.890;37.664;2023-07-09T05:33:32;98943.09;;;26.55;49.12
61900;BME280;47853;55.890;37.664;2023-07-09T05:35:58;98940.50;;;26.74;46.06
61900;BME280;47853;55.890;37.664;2023-07-09T05:38:23;98939.38;;;27.34;46.34
61900;BME280;47853;55.890;37.664;2023-07-09T05:40:59;98933.91;;;27.58;45.59
61900;BME280;47853;55.890;37.664;2023-07-09T05:43:24;98939.78;;;27.90;42.89
61900;BME280;47853;55.890;37.664;2023-07-09T05:45:50;98936.09;;;28.38;43.25
61900;BME280;47853;55.890;37.664;2023-07-09T05:48:15;98931.53;;;28.33;41.73
61900;BME280;47853;55.890;37.664;2023-07-09T05:50:41;98937.28;;;28.13;39.70
61900;BME280;47853;55.890;37.664;2023-07-09T05:53:07;98929.63;;;27.96;40.41
61900;BME280;47853;55.890;37.664;2023-07-09T05:55:32;98942.19;;;29.29;38.75
61900;BME280;47853;55.890;37.664;2023-07-09T05:57:57;98919.19;;;29.16;36.20
61900;BME280;47853;55.890;37.664;2023-07-09T06:00:23;98936.84;;;30.39;33.84
61900;BME280;47853;55.890;37.664;2023-07-09T06:02:48;98938.16;;;29.69;35.91
61900;BME280;47853;55.890;37.664;2023-07-09T06:05:14;98938.31;;;30.23;35.05
61900;BME280;47853;55.890;37.664;2023-07-09T06:07:39;98931.19;;;30.59;32.12
61900;BME280;47853;55.890;37.664;2023-07-09T06:10:05;98930.13;;;30.46;33.61
61900;BME280;47853;55.890;37.664;2023-07-09T06:12:31;98921.78;;;30.51;32.81
61900;BME280;47853;55.890;37.664;2023-07-09T06:14:56;98934.13;;;31.25;32.07
61900;BME280;47853;55.890;37.664;2023-07-09T06:17:22;98925.56;;;31.94;30.69
61900;BME280;47853;55.890;37.664;2023-07-09T06:19:47;98925.91;;;32.01;30.31
61900;BME280;47853;55.890;37.664;2023-07-09T06:22:12;98928.66;;;31.34;31.01
61900;BME280;47853;55.890;37.664;2023-07-09T06:24:38;98923.69;;;31.45;31.03
61900;BME280;47853;55.890;37.664;2023-07-09T06:27:03;98931.88;;;30.64;32.61
61900;BME280;47853;55.890;37.664;2023-07-09T06:29:29;98930.38;;;31.62;31.42
61900;BME280;47853;55.890;37.664;2023-07-09T06:31:54;98932.38;;;32.05;30.33
61900;BME280;47853;55.890;37.664;2023-07-09T06:34:19;98927.19;;;32.30;30.16
61900;BME280;47853;55.890;37.664;2023-07-09T06:36:45;98929.16;;;31.94;29.52
61900;BME280;47853;55.890;37.664;2023-07-09T06:39:10;98921.38;;;32.40;29.54
61900;BME280;47853;55.890;37.664;2023-07-09T06:41:36;98922.19;;;31.97;29.38
61900;BME280;47853;55.890;37.664;2023-07-09T06:44:01;98909.91;;;31.77;29.92
61900;BME280;47853;55.890;37.664;2023-07-09T06:46:27;98921.53;;;32.00;30.30
61900;BME280;47853;55.890;37.664;2023-07-09T06:48:52;98910.91;;;32.07;29.72
61900;BME280;47853;55.890;37.664;2023-07-09T06:51:17;98915.97;;;32.79;28.98
61900;BME280;47853;55.890;37.664;2023-07-09T06:53:43;98914.00;;;33.27;28.26
61900;BME280;47853;55.890;37.664;2023-07-09T06:56:08;98904.78;;;33.32;28.15
61900;BME280;47853;55.890;37.664;2023-07-09T06:58:34;98906.31;;;34.69;25.34
61900;BME280;47853;55.890;37.664;2023-07-09T07:01:05;98905.16;;;34.03;25.88
61900;BME280;47853;55.890;37.664;2023-07-09T07:03:32;98908.50;;;34.42;26.43
61900;BME280;47853;55.890;37.664;2023-07-09T07:05:58;98908.72;;;34.37;25.61
61900;BME280;47853;55.890;37.664;2023-07-09T07:08:25;98903.03;;;35.13;25.82
61900;BME280;47853;55.890;37.664;2023-07-09T07:10:58;98885.06;;;36.10;23.73
61900;BME280;47853;55.890;37.664;2023-07-09T07:13:23;98885.34;;;35.52;23.76
61900;BME280;47853;55.890;37.664;2023-07-09T07:15:49;98874.75;;;34.33;25.23
61900;BME280;47853;55.890;37.664;2023-07-09T07:18:14;98886.91;;;34.91;25.28
61900;BME280;47853;55.890;37.664;2023-07-09T07:20:39;98886.34;;;34.73;25.73
61900;BME280;47853;55.890;37.664;2023-07-09T07:23:05;98887.00;;;33.00;27.93
61900;BME280;47853;55.890;37.664;2023-07-09T07:25:32;98879.25;;;34.17;26.67
61900;BME280;47853;55.890;37.664;2023-07-09T07:27:57;98861.72;;;35.67;24.56
61900;BME280;47853;55.890;37.664;2023-07-09T07:30:23;98886.72;;;36.72;23.06
61900;BME280;47853;55.890;37.664;2023-07-09T07:32:50;98880.59;;;34.78;24.85
61900;BME280;47853;55.890;37.664;2023-07-09T07:35:16;98879.34;;;33.35;27.08
61900;BME280;47853;55.890;37.664;2023-07-09T07:37:41;98878.69;;;33.38;26.66
61900;BME280;47853;55.890;37.664;2023-07-09T07:40:08;98872.69;;;32.59;26.59
61900;BME280;47853;55.890;37.664;2023-07-09T07:42:34;98870.41;;;34.11;25.47
61900;BME280;47853;55.890;37.664;2023-07-09T07:44:59;98887.28;;;35.51;24.04
61900;BME280;47853;55.890;37.664;2023-07-09T07:47:25;98875.34;;;36.45;22.32
61900;BME280;47853;55.890;37.664;2023-07-09T07:49:51;98874.84;;;34.95;23.42
61900;BME280;47853;55.890;37.664;2023-07-09T07:52:16;98881.13;;;36.40;22.60
61900;BME280;47853;55.890;37.664;2023-07-09T07:54:41;98865.00;;;35.85;22.76
61900;BME280;47853;55.890;37.664;2023-07-09T07:57:07;98866.28;;;32.19;27.82
61900;BME280;47853;55.890;37.664;2023-07-09T07:59:32;98865.50;;;34.50;24.36
61900;BME280;47853;55.890;37.664;2023-07-09T08:01:58;98862.78;;;36.03;23.10
61900;BME280;47853;55.890;37.664;2023-07-09T08:04:23;98863.50;;;34.97;24.03
61900;BME280;47853;55.890;37.664;2023-07-09T08:06:48;98853.72;;;35.24;24.16
61900;BME280;47853;55.890;37.664;2023-07-09T08:09:15;98846.63;;;33.85;25.53
61900;BME280;47853;55.890;37.664;2023-07-09T08:11:40;98856.09;;;33.96;26.28
61900;BME280;47853;55.890;37.664;2023-07-09T08:14:05;98838.66;;;33.71;25.66
61900;BME280;47853;55.890;37.664;2023-07-09T08:16:31;98852.69;;;32.97;27.47
61900;BME280;47853;55.890;37.664;2023-07-09T08:18:56;98835.06;;;32.59;27.00
61900;BME280;47853;55.890;37.664;2023-07-09T08:21:21;98836.78;;;34.18;26.08
61900;BME280;47853;55.890;37.664;2023-07-09T08:23:47;98846.56;;;35.36;25.08
61900;BME280;47853;55.890;37.664;2023-07-09T08:26:13;98839.72;;;37.40;22.52
61900;BME280;47853;55.890;37.664;2023-07-09T08:28:38;98855.91;;;38.59;20.69
61900;BME280;47853;55.890;37.664;2023-07-09T08:31:04;98850.72;;;38.58;20.72
61900;BME280;47853;55.890;37.664;2023-07-09T08:33:30;98865.53;;;35.91;22.87
61900;BME280;47853;55.890;37.664;2023-07-09T08:35:56;98851.56;;;36.89;22.75
61900;BME280;47853;55.890;37.664;2023-07-09T08:38:22;98833.63;;;38.09;21.09
61900;BME280;47853;55.890;37.664;2023-07-09T08:45:58;98840.34;;;32.73;26.40
61900;BME280;47853;55.890;37.664;2023-07-09T08:48:34;98839.69;;;31.00;29.24
61900;BME280;47853;55.890;37.664;2023-07-09T08:51:28;98833.53;;;30.94;29.88
61900;BME280;47853;55.890;37.664;2023-07-09T08:53:59;98832.00;;;32.52;28.02
61900;BME280;47853;55.890;37.664;2023-07-09T08:56:26;98825.97;;;34.00;26.04
61900;BME280;47853;55.890;37.664;2023-07-09T08:58:55;98810.63;;;34.95;23.64
61900;BME280;47853;55.890;37.664;2023-07-09T09:01:24;98823.84;;;31.99;26.71
61900;BME280;47853;55.890;37.664;2023-07-09T09:03:55;98810.28;;;34.96;24.16
61900;BME280;47853;55.890;37.664;2023-07-09T09:06:27;98810.41;;;35.12;22.72
61900;BME280;47853;55.890;37.664;2023-07-09T09:11:43;98793.75;;;33.37;24.46
61900;BME280;47853;55.890;37.664;2023-07-09T09:16:51;98796.47;;;33.79;24.81
61900;BME280;47853;55.890;37.664;2023-07-09T09:21:50;98782.69;;;36.99;21.87
61900;BME280;47853;55.890;37.664;2023-07-09T09:24:25;98790.94;;;38.14;20.67
61900;BME280;47853;55.890;37.664;2023-07-09T09:26:52;98797.38;;;37.39;20.93
61900;BME280;47853;55.890;37.664;2023-07-09T09:29:24;98784.44;;;37.63;20.23
61900;BME280;47853;55.890;37.664;2023-07-09T09:31:53;98786.03;;;36.57;21.36
61900;BME280;47853;55.890;37.664;2023-07-09T09:34:25;98776.41;;;35.62;21.84
61900;BME280;47853;55.890;37.664;2023-07-09T09:36:51;98773.81;;;37.29;20.91
61900;BME280;47853;55.890;37.664;2023-07-09T09:39:17;98765.63;;;36.17;22.15
61900;BME280;47853;55.890;37.664;2023-07-09T09:41:44;98777.97;;;35.91;22.32
61900;BME280;47853;55.890;37.664;2023-07-09T09:44:21;98787.00;;;37.52;21.43
61900;BME280;47853;55.890;37.664;2023-07-09T09:46:49;98775.09;;;38.14;19.98
61900;BME280;47853;55.890;37.664;2023-07-09T09:49:14;98782.63;;;38.87;19.31
61900;BME280;47853;55.890;37.664;2023-07-09T09:51:42;98778.78;;;37.20;20.53
61900;BME280;47853;55.890;37.664;2023-07-09T09:54:35;98768.81;;;38.64;19.60
61900;BME280;47853;55.890;37.664;2023-07-09T09:56:59;98768.03;;;37.54;20.96
61900;BME280;47853;55.890;37.664;2023-07-09T09:59:29;98772.16;;;37.25;21.22
61900;BME280;47853;55.890;37.664;2023-07-09T10:02:21;98765.09;;;37.27;21.16
61900;BME280;47853;55.890;37.664;2023-07-09T10:04:47;98763.00;;;37.21;21.44
61900;BME280;47853;55.890;37.664;2023-07-09T10:09:50;98778.19;;;38.56;20.84
61900;BME280;47853;55.890;37.664;2023-07-09T10:20:51;98751.72;;;36.46;21.96
61900;BME280;47853;55.890;37.664;2023-07-09T10:26:03;98752.44;;;36.42;22.68
61900;BME280;47853;55.890;37.664;2023-07-09T10:34:12;98752.81;;;35.23;23.73
61900;BME280;47853;55.890;37.664;2023-07-09T10:37:05;98755.69;;;35.14;24.21
61900;BME280;47853;55.890;37.664;2023-07-09T10:39:37;98754.00;;;34.02;25.12
61900;BME280;47853;55.890;37.664;2023-07-09T10:42:06;98748.75;;;33.75;25.07
61900;BME280;47853;55.890;37.664;2023-07-09T10:44:39;98745.22;;;34.21;24.01
61900;BME280;47853;55.890;37.664;2023-07-09T10:47:13;98746.00;;;33.75;24.82
61900;BME280;47853;55.890;37.664;2023-07-09T10:49:43;98735.16;;;33.58;25.64
61900;BME280;47853;55.890;37.664;2023-07-09T10:52:16;98749.34;;;34.15;24.27
61900;BME280;47853;55.890;37.664;2023-07-09T10:57:52;98740.06;;;34.19;25.33
61900;BME280;47853;55.890;37.664;2023-07-09T11:00:21;98748.19;;;33.27;25.83
61900;BME280;47853;55.890;37.664;2023-07-09T11:03:00;98744.78;;;34.93;23.76
61900;BME280;47853;55.890;37.664;2023-07-09T11:05:27;98729.44;;;36.70;21.87
61900;BME280;47853;55.890;37.664;2023-07-09T11:08:13;98742.72;;;37.36;21.29
61900;BME280;47853;55.890;37.664;2023-07-09T11:11:10;98727.41;;;35.46;22.30
61900;BME280;47853;55.890;37.664;2023-07-09T11:13:51;98742.44;;;34.21;24.42
61900;BME280;47853;55.890;37.664;2023-07-09T11:16:29;98727.66;;;34.13;24.53
61900;BME280;47853;55.890;37.664;2023-07-09T11:19:01;98728.00;;;35.52;23.31
61900;BME280;47853;55.890;37.664;2023-07-09T11:21:27;98721.00;;;36.15;22.32
61900;BME280;47853;55.890;37.664;2023-07-09T11:23:58;98719.34;;;37.14;20.96
61900;BME280;47853;55.890;37.664;2023-07-09T11:26:27;98727.06;;;35.19;23.28
61900;BME280;47853;55.890;37.664;2023-07-09T11:29:17;98712.59;;;33.64;24.63
61900;BME280;47853;55.890;37.664;2023-07-09T11:31:44;98712.44;;;33.48;24.49
61900;BME280;47853;55.890;37.664;2023-07-09T11:34:17;98717.47;;;33.04;25.20
61900;BME280;47853;55.890;37.664;2023-07-09T11:39:27;98717.91;;;35.43;21.40
61900;BME280;47853;55.890;37.664;2023-07-09T11:41:53;98717.44;;;35.41;21.88
61900;BME280;47853;55.890;37.664;2023-07-09T11:44:30;98712.22;;;35.52;22.79
61900;BME280;47853;55.890;37.664;2023-07-09T11:47:19;98725.13;;;34.08;25.41
61900;BME280;47853;55.890;37.664;2023-07-09T11:49:58;98721.56;;;33.19;26.48
61900;BME280;47853;55.890;37.664;2023-07-09T11:52:37;98711.13;;;33.46;26.85
61900;BME280;47853;55.890;37.664;2023-07-09T11:58:00;98716.84;;;32.29;28.56
61900;BME280;47853;55.890;37.664;2023-07-09T12:00:37;98706.03;;;31.50;29.21
61900;BME280;47853;55.890;37.664;2023-07-09T12:03:05;98714.00;;;29.72;31.57
61900;BME280;47853;55.890;37.664;2023-07-09T12:05:31;98717.31;;;30.55;31.07
61900;BME280;47853;55.890;37.664;2023-07-09T12:07:58;98710.66;;;30.88;30.61
61900;BME280;47853;55.890;37.664;2023-07-09T12:10:27;98713.59;;;31.00;30.27
61900;BME280;47853;55.890;37.664;2023-07-09T12:12:55;98707.78;;;32.37;29.68
61900;BME280;47853;55.890;37.664;2023-07-09T12:15:31;98704.72;;;31.65;30.06
61900;BME280;47853;55.890;37.664;2023-07-09T12:17:59;98703.44;;;31.53;29.99
61900;BME280;47853;55.890;37.664;2023-07-09T12:20:29;98701.81;;;31.70;29.44
61900;BME280;47853;55.890;37.664;2023-07-09T12:22:55;98702.47;;;31.49;29.94
61900;BME280;47853;55.890;37.664;2023-07-09T12:25:25;98710.06;;;31.08;30.63
61900;BME280;47853;55.890;37.664;2023-07-09T12:27:51;98681.19;;;31.02;30.22
61900;BME280;47853;55.890;37.664;2023-07-09T12:30:16;98715.38;;;30.47;31.44
61900;BME280;47853;55.890;37.664;2023-07-09T12:32:47;98708.56;;;30.04;31.77
61900;BME280;47853;55.890;37.664;2023-07-09T12:35:14;98701.59;;;29.98;32.09
61900;BME280;47853;55.890;37.664;2023-07-09T12:37:42;98711.88;;;29.69;33.18
61900;BME280;47853;55.890;37.664;2023-07-09T12:40:21;98699.50;;;30.66;32.11
61900;BME280;47853;55.890;37.664;2023-07-09T12:42:47;98703.78;;;30.50;32.17
61900;BME280;47853;55.890;37.664;2023-07-09T12:45:20;98701.38;;;30.57;32.08
61900;BME280;47853;55.890;37.664;2023-07-09T12:47:47;98703.59;;;31.04;31.48
61900;BME280;47853;55.890;37.664;2023-07-09T12:50:28;98695.06;;;30.97;31.71
61900;BME280;47853;55.890;37.664;2023-07-09T12:52:56;98699.25;;;31.56;31.05
61900;BME280;47853;55.890;37.664;2023-07-09T12:55:26;98701.66;;;30.96;32.27
61900;BME280;47853;55.890;37.664;2023-07-09T12:57:55;98682.19;;;31.42;31.47
61900;BME280;47853;55.890;37.664;2023-07-09T13:00:20;98693.06;;;32.72;30.16
61900;BME280;47853;55.890;37.664;2023-07-09T13:02:54;98691.38;;;31.19;31.67
61900;BME280;47853;55.890;37.664;2023-07-09T13:05:20;98689.69;;;30.92;31.46
61900;BME280;47853;55.890;37.664;2023-07-09T13:07:54;98685.50;;;31.91;30.10
61900;BME280;47853;55.890;37.664;2023-07-09T13:10:25;98692.56;;;33.00;28.82
61900;BME280;47853;55.890;37.664;2023-07-09T13:12:52;98694.25;;;34.02;26.27
61900;BME280;47853;55.890;37.664;2023-07-09T13:15:28;98693.72;;;32.39;28.23
61900;BME280;47853;55.890;37.664;2023-07-09T13:17:58;98693.28;;;31.54;29.74
61900;BME280;47853;55.890;37.664;2023-07-09T13:20:24;98691.66;;;32.36;28.92
61900;BME280;47853;55.890;37.664;2023-07-09T13:22:50;98686.44;;;33.37;27.67
61900;BME280;47853;55.890;37.664;2023-07-09T13:25:16;98687.06;;;32.49;28.44
61900;BME280;47853;55.890;37.664;2023-07-09T13:27:41;98676.66;;;32.84;28.39
61900;BME280;47853;55.890;37.664;2023-07-09T13:30:07;98674.19;;;32.62;28.97
61900;BME280;47853;55.890;37.664;2023-07-09T13:32:33;98675.16;;;32.27;29.75
61900;BME280;47853;55.890;37.664;2023-07-09T13:34:58;98677.44;;;32.25;29.76